sensor_id;sensor_type;location;lat;lon;timestamp;P1;durP1;ratioP1;P2;durP2;ratioP2
35757;SDS011;21879;50.110;18.900;2023-04-25T00:06:41;13.90;;;9.70;;
35757;SDS011;21879;50.110;18.900;2023-04-25T00:17:07;11.60;;;8.40;;
35757;SDS011;21879;50.110;18.900;2023-04-25T00:27:33;15.50;;;9.80;;
35757;SDS011;21879;50.110;18.900;2023-04-25T00:38:00;18.20;;;11.10;;
35757;SDS011;21879;50.110;18.900;2023-04-25T00:48:26;13.80;;;9.10;;
35757;SDS011;21879;50.110;18.900;2023-04-25T00:58:52;13.90;;;10.30;;
35757;SDS011;21879;50.110;18.900;2023-04-25T01:09:19;10.60;;;6.40;;
35757;SDS011;21879;50.110;18.900;2023-04-25T01:19:46;6.80;;;4.00;;
35757;SDS011;21879;50.110;18.900;2023-04-25T01:30:12;4.90;;;3.40;;
35757;SDS011;21879;50.110;18.900;2023-04-25T01:40:40;3.90;;;3.00;;
35757;SDS011;21879;50.110;18.900;2023-04-25T01:51:08;5.50;;;3.40;;
35757;SDS011;21879;50.110;18.900;2023-04-25T02:01:35;5.20;;;2.80;;
35757;SDS011;21879;50.110;18.900;2023-04-25T02:12:01;6.30;;;3.70;;
35757;SDS011;21879;50.110;18.900;2023-04-25T02:22:27;5.40;;;3.00;;
35757;SDS011;21879;50.110;18.900;2023-04-25T02:32:53;5.50;;;4.10;;
35757;SDS011;21879;50.110;18.900;2023-04-25T02:43:28;7.50;;;5.20;;
35757;SDS011;21879;50.110;18.900;2023-04-25T02:53:54;7.90;;;5.10;;
35757;SDS011;21879;50.110;18.900;2023-04-25T03:04:20;8.50;;;5.70;;
35757;SDS011;21879;50.110;18.900;2023-04-25T03:14:46;9.50;;;4.30;;
35757;SDS011;21879;50.110;18.900;2023-04-25T03:25:13;5.60;;;3.00;;
35757;SDS011;21879;50.110;18.900;2023-04-25T03:35:38;4.50;;;2.60;;
35757;SDS011;21879;50.110;18.900;2023-04-25T03:46:05;5.40;;;3.00;;
35757;SDS011;21879;50.110;18.900;2023-04-25T03:56:31;5.10;;;2.80;;
35757;SDS011;21879;50.110;18.900;2023-04-25T04:06:57;5.40;;;2.80;;
35757;SDS011;21879;50.110;18.900;2023-04-25T04:17:24;5.40;;;2.90;;
35757;SDS011;21879;50.110;18.900;2023-04-25T04:27:50;5.10;;;3.50;;
35757;SDS011;21879;50.110;18.900;2023-04-25T04:38:17;5.50;;;3.90;;
35757;SDS011;21879;50.110;18.900;2023-04-25T04:48:44;5.70;;;4.30;;
35757;SDS011;21879;50.110;18.900;2023-04-25T04:59:09;4.70;;;3.50;;
35757;SDS011;21879;50.110;18.900;2023-04-25T05:09:35;4.70;;;3.40;;
35757;SDS011;21879;50.110;18.900;2023-04-25T05:20:02;4.60;;;2.70;;
35757;SDS011;21879;50.110;18.900;2023-04-25T05:30:30;5.60;;;3.10;;
35757;SDS011;21879;50.110;18.900;2023-04-25T05:40:56;4.90;;;2.80;;
35757;SDS011;21879;50.110;18.900;2023-04-25T05:51:22;4.80;;;2.50;;
35757;SDS011;21879;50.110;18.900;2023-04-25T06:01:48;4.50;;;3.20;;
35757;SDS011;21879;50.110;18.900;2023-04-25T06:12:15;5.10;;;2.80;;
35757;SDS011;21879;50.110;18.900;2023-04-25T06:22:40;6.00;;;3.20;;
35757;SDS011;21879;50.110;18.900;2023-04-25T06:33:07;6.20;;;2.80;;
35757;SDS011;21879;50.110;18.900;2023-04-25T06:43:33;6.90;;;3.40;;
35757;SDS011;21879;50.110;18.900;2023-04-25T06:53:59;5.50;;;3.30;;
35757;SDS011;21879;50.110;18.900;2023-04-25T07:04:26;7.50;;;4.10;;
35757;SDS011;21879;50.110;18.900;2023-04-25T07:14:53;5.40;;;3.90;;
35757;SDS011;21879;50.110;18.900;2023-04-25T07:25:18;6.50;;;3.60;;
35757;SDS011;21879;50.110;18.900;2023-04-25T07:35:44;6.20;;;3.70;;
35757;SDS011;21879;50.110;18.900;2023-04-25T07:46:11;7.10;;;4.30;;
35757;SDS011;21879;50.110;18.900;2023-04-25T07:56:36;7.00;;;3.90;;
35757;SDS011;21879;50.110;18.900;2023-04-25T08:07:14;6.40;;;4.00;;
35757;SDS011;21879;50.110;18.900;2023-04-25T08:17:39;8.10;;;4.10;;
35757;SDS011;21879;50.110;18.900;2023-04-25T08:28:06;9.10;;;4.80;;
35757;SDS011;21879;50.110;18.900;2023-04-25T08:38:32;7.00;;;4.20;;
35757;SDS011;21879;50.110;18.900;2023-04-25T08:49:00;6.60;;;4.40;;
35757;SDS011;21879;50.110;18.900;2023-04-25T08:59:27;5.70;;;4.20;;
35757;SDS011;21879;50.110;18.900;2023-04-25T09:09:53;6.50;;;4.40;;
35757;SDS011;21879;50.110;18.900;2023-04-25T09:20:19;7.10;;;4.10;;
35757;SDS011;21879;50.110;18.900;2023-04-25T09:30:45;7.40;;;3.90;;
35757;SDS011;21879;50.110;18.900;2023-04-25T09:41:11;5.30;;;3.70;;
35757;SDS011;21879;50.110;18.900;2023-04-25T09:51:55;5.10;;;3.30;;
35757;SDS011;21879;50.110;18.900;2023-04-25T10:02:22;6.30;;;3.70;;
35757;SDS011;21879;50.110;18.900;2023-04-25T10:12:48;5.30;;;3.90;;
35757;SDS011;21879;50.110;18.900;2023-04-25T10:23:14;5.50;;;2.80;;
35757;SDS011;21879;50.110;18.900;2023-04-25T10:33:41;6.40;;;3.30;;
35757;SDS011;21879;50.110;18.900;2023-04-25T10:44:08;4.40;;;3.30;;
35757;SDS011;21879;50.110;18.900;2023-04-25T10:54:34;5.50;;;3.20;;
35757;SDS011;21879;50.110;18.900;2023-04-25T11:05:04;5.50;;;3.30;;
35757;SDS011;21879;50.110;18.900;2023-04-25T11:15:30;4.60;;;2.40;;
35757;SDS011;21879;50.110;18.900;2023-04-25T11:25:56;5.40;;;3.00;;
35757;SDS011;21879;50.110;18.900;2023-04-25T11:36:24;4.40;;;2.70;;
35757;SDS011;21879;50.110;18.900;2023-04-25T11:46:50;5.70;;;3.50;;
35757;SDS011;21879;50.110;18.900;2023-04-25T11:57:18;5.20;;;2.90;;
35757;SDS011;21879;50.110;18.900;2023-04-25T12:07:45;3.80;;;2.50;;
35757;SDS011;21879;50.110;18.900;2023-04-25T12:18:12;3.90;;;2.70;;
35757;SDS011;21879;50.110;18.900;2023-04-25T12:28:37;5.00;;;2.70;;
35757;SDS011;21879;50.110;18.900;2023-04-25T12:39:03;3.90;;;2.50;;
35757;SDS011;21879;50.110;18.900;2023-04-25T12:49:30;4.10;;;2.80;;
35757;SDS011;21879;50.110;18.900;2023-04-25T12:59:56;4.70;;;2.60;;
35757;SDS011;21879;50.110;18.900;2023-04-25T13:10:22;5.50;;;3.70;;
35757;SDS011;21879;50.110;18.900;2023-04-25T13:20:47;7.50;;;4.60;;
35757;SDS011;21879;50.110;18.900;2023-04-25T13:31:14;6.20;;;3.70;;
35757;SDS011;21879;50.110;18.900;2023-04-25T13:41:40;9.80;;;4.30;;
35757;SDS011;21879;50.110;18.900;2023-04-25T13:52:06;8.20;;;4.80;;
35757;SDS011;21879;50.110;18.900;2023-04-25T14:02:32;7.50;;;4.30;;
35757;SDS011;21879;50.110;18.900;2023-04-25T14:12:58;11.80;;;5.80;;
35757;SDS011;21879;50.110;18.900;2023-04-25T14:23:26;6.60;;;4.30;;
35757;SDS011;21879;50.110;18.900;2023-04-25T14:33:52;6.50;;;4.20;;
35757;SDS011;21879;50.110;18.900;2023-04-25T14:44:21;6.20;;;4.30;;
35757;SDS011;21879;50.110;18.900;2023-04-25T14:54:46;5.10;;;3.90;;
35757;SDS011;21879;50.110;18.900;2023-04-25T15:05:12;6.60;;;4.10;;
35757;SDS011;21879;50.110;18.900;2023-04-25T15:15:39;7.70;;;4.40;;
35757;SDS011;21879;50.110;18.900;2023-04-25T15:26:05;5.40;;;4.20;;
35757;SDS011;21879;50.110;18.900;2023-04-25T15:36:31;5.50;;;3.60;;
35757;SDS011;21879;50.110;18.900;2023-04-25T15:46:57;5.40;;;4.20;;
35757;SDS011;21879;50.110;18.900;2023-04-25T15:57:23;7.40;;;4.80;;
35757;SDS011;21879;50.110;18.900;2023-04-25T16:07:49;4.70;;;4.10;;
35757;SDS011;21879;50.110;18.900;2023-04-25T16:18:15;6.30;;;3.60;;
35757;SDS011;21879;50.110;18.900;2023-04-25T16:28:41;5.40;;;3.20;;
35757;SDS011;21879;50.110;18.900;2023-04-25T16:39:07;6.80;;;4.40;;
35757;SDS011;21879;50.110;18.900;2023-04-25T16:49:33;9.70;;;6.70;;
35757;SDS011;21879;50.110;18.900;2023-04-25T17:00:00;7.50;;;4.70;;
35757;SDS011;21879;50.110;18.900;2023-04-25T17:10:27;8.10;;;3.70;;
35757;SDS011;21879;50.110;18.900;2023-04-25T17:20:54;4.70;;;3.30;;
35757;SDS011;21879;50.110;18.900;2023-04-25T17:31:20;5.60;;;4.20;;
35757;SDS011;21879;50.110;18.900;2023-04-25T17:41:47;9.20;;;3.90;;
35757;SDS011;21879;50.110;18.900;2023-04-25T17:52:13;11.70;;;7.90;;
35757;SDS011;21879;50.110;18.900;2023-04-25T18:02:39;15.40;;;8.90;;
35757;SDS011;21879;50.110;18.900;2023-04-25T18:13:07;12.90;;;7.70;;
35757;SDS011;21879;50.110;18.900;2023-04-25T18:23:32;8.30;;;4.60;;
35757;SDS011;21879;50.110;18.900;2023-04-25T18:34:00;6.40;;;4.10;;
35757;SDS011;21879;50.110;18.900;2023-04-25T18:44:26;7.50;;;4.50;;
35757;SDS011;21879;50.110;18.900;2023-04-25T19:05:18;11.00;;;7.80;;
35757;SDS011;21879;50.110;18.900;2023-04-25T19:15:44;13.30;;;9.00;;
35757;SDS011;21879;50.110;18.900;2023-04-25T19:26:10;11.60;;;7.00;;
35757;SDS011;21879;50.110;18.900;2023-04-25T19:36:37;11.80;;;6.90;;
35757;SDS011;21879;50.110;18.900;2023-04-25T19:47:04;11.20;;;7.50;;
35757;SDS011;21879;50.110;18.900;2023-04-25T19:57:29;8.20;;;5.20;;
35757;SDS011;21879;50.110;18.900;2023-04-25T20:07:56;7.50;;;4.80;;
35757;SDS011;21879;50.110;18.900;2023-04-25T20:18:21;11.10;;;5.60;;
35757;SDS011;21879;50.110;18.900;2023-04-25T20:28:48;7.70;;;5.40;;
35757;SDS011;21879;50.110;18.900;2023-04-25T20:39:15;10.70;;;5.40;;
35757;SDS011;21879;50.110;18.900;2023-04-25T20:49:41;7.80;;;4.30;;
35757;SDS011;21879;50.110;18.900;2023-04-25T21:00:08;8.90;;;4.40;;
35757;SDS011;21879;50.110;18.900;2023-04-25T21:10:42;5.60;;;3.20;;
35757;SDS011;21879;50.110;18.900;2023-04-25T21:21:08;4.80;;;2.60;;
35757;SDS011;21879;50.110;18.900;2023-04-25T21:31:35;6.10;;;3.10;;
35757;SDS011;21879;50.110;18.900;2023-04-25T21:42:01;4.80;;;2.40;;
35757;SDS011;21879;50.110;18.900;2023-04-25T21:52:30;6.70;;;2.70;;
35757;SDS011;21879;50.110;18.900;2023-04-25T22:02:56;5.60;;;3.20;;
35757;SDS011;21879;50.110;18.900;2023-04-25T22:13:23;6.30;;;2.80;;
35757;SDS011;21879;50.110;18.900;2023-04-25T22:23:51;6.30;;;2.90;;
35757;SDS011;21879;50.110;18.900;2023-04-25T22:34:18;9.40;;;3.40;;
35757;SDS011;21879;50.110;18.900;2023-04-25T22:44:45;6.20;;;2.90;;
35757;SDS011;21879;50.110;18.900;2023-04-25T22:55:10;5.10;;;2.70;;
35757;SDS011;21879;50.110;18.900;2023-04-25T23:05:36;5.50;;;3.70;;
35757;SDS011;21879;50.110;18.900;2023-04-25T23:16:06;7.30;;;2.90;;
35757;SDS011;21879;50.110;18.900;2023-04-25T23:26:33;5.00;;;2.70;;
35757;SDS011;21879;50.110;18.900;2023-04-25T23:36:59;7.10;;;3.70;;
35757;SDS011;21879;50.110;18.900;2023-04-25T23:47:26;10.80;;;3.30;;
35757;SDS011;21879;50.110;18.900;2023-04-25T23:57:52;7.90;;;2.90;;
